This is the latest recevied weather packets stored in our database for station/object EA2KR-10. If no packets are shown the sender has not sent any weather packets the latest 10 day(s).
| Time | Temp. | Humidity | Pressure | Rain* | Wind** | Luminosity | Snow |
|---|---|---|---|---|---|---|---|
| 1787751200 | 40.56° C | 22% | 1021.6 hPa | - | - | - | - |
| 1787749400 | 39.44° C | 24% | 1021.8 hPa | - | - | - | - |
| 1787747600 | 38.33° C | 26% | 1022.1 hPa | - | - | - | - |
| 1787745800 | 37.22° C | 27% | 1022.3 hPa | - | - | - | - |
| 1787744000 | 36.11° C | 29% | 1022.8 hPa | - | - | - | - |
| 1787742200 | 35° C | 32% | 1023.2 hPa | - | - | - | - |
| 1787740400 | 33.33° C | 34% | 1023.4 hPa | - | - | - | - |
| 1787738600 | 31.67° C | 37% | 1023.5 hPa | - | - | - | - |
| 1787736800 | 29.44° C | 38% | 1024 hPa | - | - | - | - |
| 1787735000 | 27.78° C | 39% | 1024 hPa | - | - | - | - |
| 1787733199 | 26.67° C | 40% | 1023.9 hPa | - | - | - | - |
| 1787731399 | 25.56° C | 40% | 1024.1 hPa | - | - | - | - |
| 1787729598 | 25° C | 41% | 1024.2 hPa | - | - | - | - |
| 1787727798 | 24.44° C | 40% | 1024.5 hPa | - | - | - | - |
| 1787726000 | 24.44° C | 40% | 1024.6 hPa | - | - | - | - |
| 1787724200 | 24.44° C | 40% | 1024.6 hPa | - | - | - | - |
| 1787722537 | 24.44° C | 40% | 1024.6 hPa | - | - | - | - |
| 1787722400 | 24.44° C | 40% | 1024.6 hPa | - | - | - | - |
| 1787720600 | 24.44° C | 40% | 1024.4 hPa | - | - | - | - |
| 1787718800 | 24.44° C | 41% | 1024.9 hPa | - | - | - | - |
| 1787717000 | 24.44° C | 40% | 1025.1 hPa | - | - | - | - |
| 1787715200 | 24.44° C | 41% | 1025.3 hPa | - | - | - | - |
| 1787713400 | 24.44° C | 40% | 1025.4 hPa | - | - | - | - |
| 1787711599 | 24.44° C | 41% | 1025.7 hPa | - | - | - | - |
| 1787709799 | 25° C | 39% | 1025.8 hPa | - | - | - | - |
* Rain since midnight (hover to see other rain measurements)
** Current wind speed in m/s (hover to see current wind gust speed)